createdAt,value
2019-05-26T00:02:50.401Z,14.60
2019-05-26T00:07:53.992Z,14.50
2019-05-26T00:12:57.934Z,14.30
2019-05-26T00:18:01.525Z,14.00
2019-05-26T00:23:05.125Z,13.70
2019-05-26T00:28:08.713Z,13.80
2019-05-26T00:33:12.360Z,13.60
2019-05-26T00:38:16.308Z,13.50
2019-05-26T00:43:19.944Z,13.40
2019-05-26T00:48:23.688Z,13.60
2019-05-26T00:53:27.360Z,13.60
2019-05-26T00:58:30.970Z,13.60
2019-05-26T01:03:34.629Z,13.50
2019-05-26T01:08:38.298Z,13.40
2019-05-26T01:13:41.956Z,13.40
2019-05-26T01:18:45.626Z,13.20
2019-05-26T01:23:49.221Z,13.00
2019-05-26T01:28:52.800Z,12.80
2019-05-26T01:33:56.534Z,12.70
2019-05-26T01:39:00.193Z,12.90
2019-05-26T01:44:04.237Z,12.80
2019-05-26T01:49:07.976Z,12.90
2019-05-26T01:54:11.684Z,13.00
2019-05-26T01:59:15.280Z,13.00
2019-05-26T02:04:19.390Z,13.00
2019-05-26T02:09:23.039Z,12.80
2019-05-26T02:14:26.693Z,12.70
2019-05-26T02:19:30.663Z,12.70
2019-05-26T02:24:34.261Z,12.60
2019-05-26T02:29:38.309Z,12.40
2019-05-26T02:34:41.978Z,12.20
2019-05-26T02:39:45.964Z,12.40
2019-05-26T02:44:49.549Z,12.30
2019-05-26T02:49:53.130Z,12.50
2019-05-26T02:54:56.734Z,12.50
2019-05-26T03:00:00.315Z,12.50
2019-05-26T03:05:05.920Z,12.50
2019-05-26T03:10:09.854Z,12.30
2019-05-26T03:15:15.744Z,12.10
2019-05-26T03:20:19.542Z,12.20
2019-05-26T03:25:23.309Z,12.30
2019-05-26T03:30:26.977Z,12.20
2019-05-26T03:35:30.725Z,12.10
2019-05-26T03:40:34.458Z,12.10
2019-05-26T03:45:44.150Z,12.20
2019-05-26T03:50:47.759Z,12.10
2019-05-26T03:55:51.346Z,12.00
2019-05-26T04:00:54.950Z,11.90
2019-05-26T04:05:58.622Z,11.80
2019-05-26T04:11:02.350Z,12.00
2019-05-26T04:16:06.023Z,12.20
2019-05-26T04:21:10.085Z,12.10
2019-05-26T04:26:13.752Z,12.10
2019-05-26T04:31:17.417Z,12.10
2019-05-26T04:36:21.358Z,11.90
2019-05-26T04:41:24.953Z,12.00
2019-05-26T04:46:28.868Z,12.10
2019-05-26T04:51:32.529Z,12.10
2019-05-26T04:56:36.212Z,12.40
2019-05-26T05:01:40.289Z,12.50
2019-05-26T05:06:43.880Z,12.60
2019-05-26T05:11:47.555Z,12.60
2019-05-26T05:16:51.152Z,12.70
2019-05-26T05:21:54.762Z,12.80
2019-05-26T05:26:58.373Z,13.10
2019-05-26T05:32:01.967Z,13.40
2019-05-26T05:37:06.025Z,13.60
2019-05-26T05:42:09.611Z,13.70
2019-05-26T05:47:13.224Z,13.90
2019-05-26T05:52:16.836Z,14.20
2019-05-26T05:57:20.425Z,14.60
2019-05-26T06:02:24.365Z,14.80
2019-05-26T06:07:28.259Z,15.10
2019-05-26T06:12:32.149Z,15.20
2019-05-26T06:17:36.256Z,15.30
2019-05-26T06:22:39.957Z,15.20
2019-05-26T06:27:43.613Z,15.50
2019-05-26T06:32:47.218Z,15.80
2019-05-26T06:37:50.812Z,15.90
2019-05-26T06:42:54.510Z,16.30
2019-05-26T06:47:58.505Z,16.50
2019-05-26T06:53:02.341Z,16.60
2019-05-26T06:58:06.339Z,16.70
2019-05-26T07:03:10.298Z,17.10
2019-05-26T07:08:14.318Z,17.20
2019-05-26T07:13:18.342Z,17.40
2019-05-26T07:18:22.034Z,17.30
2019-05-26T07:23:25.698Z,17.60
2019-05-26T07:28:29.749Z,17.90
2019-05-26T07:33:33.669Z,18.10
2019-05-26T07:38:37.406Z,18.50
2019-05-26T07:43:41.108Z,18.70
2019-05-26T07:48:44.903Z,18.90
2019-05-26T07:53:48.989Z,19.10
2019-05-26T07:58:52.731Z,19.00
2019-05-26T08:03:56.721Z,19.30
2019-05-26T08:09:00.409Z,19.50
2019-05-26T08:14:04.247Z,19.90
2019-05-26T08:19:07.870Z,20.10
2019-05-26T08:24:11.498Z,20.30
2019-05-26T08:29:15.158Z,20.70
2019-05-26T08:34:18.779Z,20.70
2019-05-26T08:39:22.935Z,20.60
2019-05-26T08:44:26.680Z,20.60
2019-05-26T08:49:30.276Z,21.10
2019-05-26T08:54:34.352Z,21.10
2019-05-26T08:59:38.284Z,21.30
2019-05-26T09:04:41.887Z,21.40
2019-05-26T09:09:45.475Z,21.40
2019-05-26T09:14:49.086Z,21.90
2019-05-26T09:19:53.273Z,21.90
2019-05-26T09:24:56.969Z,22.10
2019-05-26T09:30:00.939Z,22.30
2019-05-26T09:35:06.294Z,22.50
2019-05-26T09:40:11.303Z,23.00
2019-05-26T09:45:15.447Z,23.10
2019-05-26T09:50:20.117Z,23.30
2019-05-26T09:55:24.162Z,23.00
2019-05-26T10:00:27.975Z,23.50
2019-05-26T10:05:31.574Z,23.70
2019-05-26T10:10:35.233Z,24.10
2019-05-26T10:15:39.193Z,24.40
2019-05-26T10:20:43.122Z,24.30
2019-05-26T10:25:47.271Z,24.00
2019-05-26T10:30:50.866Z,24.10
2019-05-26T10:36:06.818Z,24.40
2019-05-26T10:41:10.566Z,25.10
2019-05-26T10:46:14.343Z,25.60
2019-05-26T10:51:18.236Z,25.90
2019-05-26T10:56:21.896Z,25.30
2019-05-26T11:01:25.624Z,25.40
2019-05-26T11:06:29.217Z,25.50
2019-05-26T11:11:32.825Z,25.90
2019-05-26T11:16:36.502Z,25.30
2019-05-26T11:21:40.085Z,26.10
2019-05-26T11:26:43.705Z,26.90
2019-05-26T11:31:47.744Z,27.40
2019-05-26T11:36:51.777Z,27.50
2019-05-26T11:41:55.475Z,28.00
2019-05-26T11:46:59.143Z,27.10
2019-05-26T11:52:03.723Z,26.70
2019-05-26T11:57:07.384Z,25.20
2019-05-26T12:02:11.119Z,25.20
2019-05-26T12:07:15.154Z,26.20
2019-05-26T12:12:18.874Z,26.60
2019-05-26T12:17:22.819Z,26.20
2019-05-26T12:22:26.374Z,26.20
2019-05-26T12:27:30.237Z,25.80
2019-05-26T12:32:34.078Z,25.70
2019-05-26T12:37:38.025Z,26.20
2019-05-26T12:42:41.919Z,27.20
2019-05-26T12:47:45.673Z,27.30
2019-05-26T12:52:49.337Z,26.70
2019-05-26T12:57:52.929Z,26.00
2019-05-26T13:02:56.983Z,25.80
2019-05-26T13:08:00.618Z,26.20
2019-05-26T13:13:04.465Z,26.50
2019-05-26T13:18:08.166Z,26.70
2019-05-26T13:23:11.751Z,26.50
2019-05-26T13:28:15.432Z,27.40
2019-05-26T13:33:19.027Z,28.10
2019-05-26T13:38:22.683Z,27.60
2019-05-26T13:43:26.321Z,28.20
2019-05-26T13:48:30.009Z,28.70
2019-05-26T13:53:33.607Z,28.00
2019-05-26T13:58:37.201Z,27.50
2019-05-26T14:03:40.814Z,27.40
2019-05-26T14:08:44.489Z,27.50
2019-05-26T14:13:48.259Z,26.30
2019-05-26T14:18:53.547Z,26.50
2019-05-26T14:23:57.218Z,26.50
2019-05-26T14:29:01.202Z,26.10
2019-05-26T14:34:05.018Z,25.90
2019-05-26T14:39:10.145Z,26.60
2019-05-26T14:44:14.181Z,27.20
2019-05-26T14:49:18.253Z,26.10
2019-05-26T14:54:21.921Z,26.80
2019-05-26T14:59:25.746Z,27.00
2019-05-26T15:04:31.265Z,27.40
2019-05-26T15:09:35.492Z,27.70
2019-05-26T15:14:39.128Z,27.50
2019-05-26T15:19:42.767Z,27.80
2019-05-26T15:24:46.444Z,27.80
2019-05-26T15:29:50.394Z,28.00
2019-05-26T15:34:54.134Z,27.70
2019-05-26T15:39:57.735Z,27.70
2019-05-26T15:45:01.430Z,26.60
2019-05-26T15:50:08.665Z,27.20
2019-05-26T15:55:12.696Z,27.40
2019-05-26T16:00:17.330Z,27.40
2019-05-26T16:05:21.082Z,27.50
2019-05-26T16:10:24.814Z,27.20
2019-05-26T16:15:28.483Z,26.80
2019-05-26T16:20:32.101Z,26.80
2019-05-26T16:25:36.055Z,26.10
2019-05-26T16:30:39.701Z,26.10
2019-05-26T16:35:43.297Z,26.30
2019-05-26T16:40:47.424Z,26.20
2019-05-26T16:45:56.231Z,25.80
2019-05-26T16:50:56.726Z,25.80
2019-05-26T16:56:00.345Z,25.90
2019-05-26T17:01:04.366Z,25.60
2019-05-26T17:06:08.442Z,25.30
2019-05-26T17:11:12.537Z,25.40
2019-05-26T17:16:16.525Z,24.90
2019-05-26T17:21:20.742Z,24.80
2019-05-26T17:26:25.508Z,24.60
2019-05-26T17:31:29.525Z,24.40
2019-05-26T17:36:33.212Z,24.30
2019-05-26T17:41:37.362Z,24.30
2019-05-26T17:46:41.038Z,24.30
2019-05-26T17:51:44.756Z,24.20
2019-05-26T17:56:48.425Z,24.10
2019-05-26T18:01:52.095Z,23.70
2019-05-26T18:06:56.183Z,23.30
2019-05-26T18:11:59.779Z,22.80
2019-05-26T18:17:03.438Z,22.20
2019-05-26T18:22:07.175Z,22.00
2019-05-26T18:27:12.137Z,21.70
2019-05-26T18:32:19.134Z,21.30
2019-05-26T18:37:21.261Z,20.80
2019-05-26T18:42:24.953Z,20.70
2019-05-26T18:47:29.091Z,20.20
2019-05-26T18:52:32.945Z,19.70
2019-05-26T18:57:38.586Z,19.50
2019-05-26T19:02:44.304Z,19.20
2019-05-26T19:08:21.116Z,19.10
2019-05-26T19:13:36.964Z,18.80
2019-05-26T19:18:50.958Z,18.50
2019-05-26T19:23:46.036Z,18.10
2019-05-26T19:28:50.274Z,17.90
2019-05-26T19:33:53.946Z,17.90
2019-05-26T19:38:59.321Z,17.80
2019-05-26T19:44:04.851Z,17.70
2019-05-26T19:49:08.579Z,17.60
2019-05-26T19:54:14.103Z,17.50
2019-05-26T19:59:17.673Z,17.80
2019-05-26T20:04:21.397Z,17.80
2019-05-26T20:09:25.165Z,17.80
2019-05-26T20:14:30.400Z,17.80
2019-05-26T20:19:35.820Z,17.80
2019-05-26T20:24:39.918Z,17.70
2019-05-26T20:29:50.541Z,17.80
2019-05-26T20:34:51.630Z,17.80
2019-05-26T20:39:55.899Z,17.60
2019-05-26T20:44:59.651Z,17.50
2019-05-26T20:50:04.969Z,17.40
2019-05-26T20:55:10.949Z,17.20
2019-05-26T21:00:17.188Z,17.40
2019-05-26T21:05:21.480Z,17.20
2019-05-26T21:10:25.258Z,17.20
2019-05-26T21:15:28.953Z,17.00
2019-05-26T21:20:32.926Z,17.00
2019-05-26T21:25:36.611Z,16.80
2019-05-26T21:30:40.300Z,16.70
2019-05-26T21:35:44.305Z,16.80
2019-05-26T21:40:50.807Z,16.80
2019-05-26T21:45:54.481Z,17.00
2019-05-26T21:50:58.427Z,17.20
2019-05-26T21:56:02.182Z,17.40
2019-05-26T22:01:06.020Z,17.40
2019-05-26T22:06:09.607Z,17.20
2019-05-26T22:11:13.384Z,17.20
2019-05-26T22:16:17.533Z,17.10
2019-05-26T22:21:21.280Z,17.30
2019-05-26T22:26:25.004Z,17.20
2019-05-26T22:31:29.015Z,17.20
2019-05-26T22:36:32.691Z,17.00
2019-05-26T22:41:36.287Z,16.90
2019-05-26T22:46:40.260Z,16.90
2019-05-26T22:51:44.000Z,16.90
2019-05-26T22:56:47.679Z,16.80
2019-05-26T23:01:51.505Z,16.90
2019-05-26T23:06:57.994Z,16.70
2019-05-26T23:12:01.689Z,16.50
2019-05-26T23:17:05.492Z,16.40
2019-05-26T23:22:09.651Z,16.30
2019-05-26T23:27:32.613Z,16.10
2019-05-26T23:32:36.298Z,15.80
2019-05-26T23:37:40.528Z,15.60
2019-05-26T23:42:44.123Z,15.70
2019-05-26T23:47:47.803Z,15.30
2019-05-26T23:52:51.869Z,15.30
2019-05-26T23:57:55.542Z,15.20
